Terminal Aerodrome Forecast
Issued by NWS

Home | Current Version | Previous Version | Text Only | Print | Product List | Glossary On
Versions: 1 2 3 4 5 6 7 8 9 10 11 12 13 14 15 16 17 18 19 20 21 22 23 24 25
000
FTUS45 KREV 031123
TAFTVL
TAF
KTVL 031123Z 0312/0412 VRB04KT P6SM SCT070 BKN120
     FM031900 03007KT P6SM SCT070 BKN120
     FM032100 08008KT P6SM VCTS SCT060CB BKN100
     FM040100 19007KT P6SM VCSH SCT070 BKN120
     FM040500 VRB04KT P6SM SCT060 BKN110=

USA.gov is the U.S. government's official web portal to all federal, state and local government web resources and services.